sensor_id;sensor_type;location;lat;lon;timestamp;pressure;altitude;pressure_sealevel;temperature;humidity
29197;BME280;62796;42.654;23.316;2022-09-12T00:00:47;94357.09;;;20.17;58.71
29197;BME280;62796;42.654;23.316;2022-09-12T00:03:13;94361.00;;;20.07;59.21
29197;BME280;62796;42.654;23.316;2022-09-12T00:05:43;94354.75;;;19.94;59.63
29197;BME280;62796;42.654;23.316;2022-09-12T00:08:09;94357.81;;;19.84;59.93
29197;BME280;62796;42.654;23.316;2022-09-12T00:10:39;94358.50;;;19.72;60.69
29197;BME280;62796;42.654;23.316;2022-09-12T00:13:06;94365.78;;;19.71;60.67
29197;BME280;62796;42.654;23.316;2022-09-12T00:15:32;94371.53;;;19.61;60.33
29197;BME280;62796;42.654;23.316;2022-09-12T00:18:01;94381.47;;;19.69;60.25
29197;BME280;62796;42.654;23.316;2022-09-12T00:20:27;94365.69;;;19.59;59.90
29197;BME280;62796;42.654;23.316;2022-09-12T00:22:52;94378.69;;;19.57;59.99
29197;BME280;62796;42.654;23.316;2022-09-12T00:25:17;94376.19;;;19.52;60.41
29197;BME280;62796;42.654;23.316;2022-09-12T00:27:43;94371.47;;;19.40;60.19
29197;BME280;62796;42.654;23.316;2022-09-12T00:30:09;94376.38;;;19.47;60.44
29197;BME280;62796;42.654;23.316;2022-09-12T00:32:34;94376.22;;;19.43;60.19
29197;BME280;62796;42.654;23.316;2022-09-12T00:35:00;94378.28;;;19.46;60.20
29197;BME280;62796;42.654;23.316;2022-09-12T02:03:13;94345.31;;;17.19;64.04
29197;BME280;62796;42.654;23.316;2022-09-12T02:06:28;94349.72;;;17.15;64.19
29197;BME280;62796;42.654;23.316;2022-09-12T02:08:52;94351.47;;;17.11;64.45
29197;BME280;62796;42.654;23.316;2022-09-12T02:11:20;94351.59;;;17.05;64.51
29197;BME280;62796;42.654;23.316;2022-09-12T02:14:10;94354.28;;;17.05;64.53
29197;BME280;62796;42.654;23.316;2022-09-12T02:16:43;94359.47;;;17.02;64.65
29197;BME280;62796;42.654;23.316;2022-09-12T02:19:19;94349.16;;;16.95;64.83
29197;BME280;62796;42.654;23.316;2022-09-12T02:21:55;94355.00;;;16.97;64.69
29197;BME280;62796;42.654;23.316;2022-09-12T02:24:24;94355.50;;;16.99;64.69
29197;BME280;62796;42.654;23.316;2022-09-12T02:26:56;94365.25;;;16.95;64.53
29197;BME280;62796;42.654;23.316;2022-09-12T02:29:22;94345.19;;;16.84;64.66
29197;BME280;62796;42.654;23.316;2022-09-12T02:31:57;94363.19;;;16.92;64.60
29197;BME280;62796;42.654;23.316;2022-09-12T02:34:53;94360.97;;;16.94;64.30
29197;BME280;62796;42.654;23.316;2022-09-12T02:40:06;94352.59;;;16.87;64.16
29197;BME280;62796;42.654;23.316;2022-09-12T02:42:33;94357.81;;;16.92;64.14
29197;BME280;62796;42.654;23.316;2022-09-12T02:44:59;94352.94;;;16.94;64.01
29197;BME280;62796;42.654;23.316;2022-09-12T02:47:33;94354.06;;;16.93;64.06
29197;BME280;62796;42.654;23.316;2022-09-12T02:50:02;94366.03;;;16.96;63.45
29197;BME280;62796;42.654;23.316;2022-09-12T02:52:30;94365.56;;;16.94;63.39
29197;BME280;62796;42.654;23.316;2022-09-12T02:54:56;94358.44;;;16.89;63.39
29197;BME280;62796;42.654;23.316;2022-09-12T02:57:22;94348.94;;;16.83;63.19
29197;BME280;62796;42.654;23.316;2022-09-12T02:59:50;94351.50;;;16.88;63.27
29197;BME280;62796;42.654;23.316;2022-09-12T03:02:31;94361.97;;;16.76;63.48
29197;BME280;62796;42.654;23.316;2022-09-12T03:16:21;94378.91;;;16.62;64.83
29197;BME280;62796;42.654;23.316;2022-09-12T03:24:15;94374.91;;;16.51;65.11
29197;BME280;62796;42.654;23.316;2022-09-12T03:29:34;94370.91;;;16.40;65.41
29197;BME280;62796;42.654;23.316;2022-09-12T03:32:01;94364.66;;;16.30;65.88
29197;BME280;62796;42.654;23.316;2022-09-12T03:34:27;94369.22;;;16.30;66.10
29197;BME280;62796;42.654;23.316;2022-09-12T03:36:52;94374.88;;;16.28;66.52
29197;BME280;62796;42.654;23.316;2022-09-12T03:39:22;94364.78;;;16.25;66.34
29197;BME280;62796;42.654;23.316;2022-09-12T03:41:51;94362.31;;;16.29;66.16
29197;BME280;62796;42.654;23.316;2022-09-12T03:44:17;94365.00;;;16.29;65.95
29197;BME280;62796;42.654;23.316;2022-09-12T03:46:43;94352.63;;;16.19;65.85
29197;BME280;62796;42.654;23.316;2022-09-12T03:49:09;94363.59;;;16.31;66.02
29197;BME280;62796;42.654;23.316;2022-09-12T03:51:35;94373.31;;;16.27;65.92
29197;BME280;62796;42.654;23.316;2022-09-12T03:54:01;94363.41;;;16.28;65.69
29197;BME280;62796;42.654;23.316;2022-09-12T03:56:27;94364.66;;;16.30;65.81
29197;BME280;62796;42.654;23.316;2022-09-12T03:58:53;94367.09;;;16.41;65.73
29197;BME280;62796;42.654;23.316;2022-09-12T04:01:19;94371.69;;;16.40;65.95
29197;BME280;62796;42.654;23.316;2022-09-12T04:03:47;94371.50;;;16.37;65.74
29197;BME280;62796;42.654;23.316;2022-09-12T04:06:15;94371.91;;;16.30;66.03
29197;BME280;62796;42.654;23.316;2022-09-12T04:08:42;94373.38;;;16.36;66.04
29197;BME280;62796;42.654;23.316;2022-09-12T04:11:11;94374.16;;;16.37;66.07
29197;BME280;62796;42.654;23.316;2022-09-12T04:13:38;94382.19;;;16.37;66.08
29197;BME280;62796;42.654;23.316;2022-09-12T04:16:05;94383.91;;;16.32;65.90
29197;BME280;62796;42.654;23.316;2022-09-12T04:18:32;94387.06;;;16.35;66.18
29197;BME280;62796;42.654;23.316;2022-09-12T04:20:58;94387.69;;;16.31;66.31
29197;BME280;62796;42.654;23.316;2022-09-12T04:23:23;94388.63;;;16.36;66.19
29197;BME280;62796;42.654;23.316;2022-09-12T04:25:53;94389.63;;;16.40;65.97
29197;BME280;62796;42.654;23.316;2022-09-12T04:28:19;94388.03;;;16.39;65.91
29197;BME280;62796;42.654;23.316;2022-09-12T04:30:44;94397.03;;;16.43;65.89
29197;BME280;62796;42.654;23.316;2022-09-12T04:33:09;94393.09;;;16.40;65.73
29197;BME280;62796;42.654;23.316;2022-09-12T04:35:35;94411.59;;;16.50;65.60
29197;BME280;62796;42.654;23.316;2022-09-12T04:38:00;94396.97;;;16.57;65.42
29197;BME280;62796;42.654;23.316;2022-09-12T04:40:28;94393.69;;;16.60;65.46
29197;BME280;62796;42.654;23.316;2022-09-12T04:42:54;94400.84;;;16.64;65.18
29197;BME280;62796;42.654;23.316;2022-09-12T04:45:20;94402.28;;;16.70;65.17
29197;BME280;62796;42.654;23.316;2022-09-12T04:47:46;94374.16;;;16.59;65.03
29197;BME280;62796;42.654;23.316;2022-09-12T04:50:11;94406.28;;;16.82;65.02
29197;BME280;62796;42.654;23.316;2022-09-12T04:52:36;94387.97;;;16.75;65.01
29197;BME280;62796;42.654;23.316;2022-09-12T04:55:02;94408.84;;;16.87;64.92
29197;BME280;62796;42.654;23.316;2022-09-12T04:57:27;94389.66;;;16.94;64.59
29197;BME280;62796;42.654;23.316;2022-09-12T04:59:53;94406.50;;;17.17;64.36
29197;BME280;62796;42.654;23.316;2022-09-12T05:02:18;94390.25;;;17.13;63.44
29197;BME280;62796;42.654;23.316;2022-09-12T05:04:43;94400.09;;;17.26;63.49
29197;BME280;62796;42.654;23.316;2022-09-12T05:07:11;94393.03;;;17.39;63.19
29197;BME280;62796;42.654;23.316;2022-09-12T05:09:36;94397.97;;;17.55;62.68
29197;BME280;62796;42.654;23.316;2022-09-12T05:12:02;94402.56;;;17.63;62.68
29197;BME280;62796;42.654;23.316;2022-09-12T05:14:28;94393.75;;;17.71;62.31
29197;BME280;62796;42.654;23.316;2022-09-12T05:16:53;94408.13;;;17.75;61.72
29197;BME280;62796;42.654;23.316;2022-09-12T05:19:23;94402.97;;;17.88;61.51
29197;BME280;62796;42.654;23.316;2022-09-12T05:21:49;94407.56;;;17.96;61.31
29197;BME280;62796;42.654;23.316;2022-09-12T05:24:14;94400.31;;;18.05;61.08
29197;BME280;62796;42.654;23.316;2022-09-12T05:26:40;94401.09;;;18.14;60.40
29197;BME280;62796;42.654;23.316;2022-09-12T05:29:05;94407.25;;;18.24;60.66
29197;BME280;62796;42.654;23.316;2022-09-12T05:31:31;94388.16;;;18.25;59.86
29197;BME280;62796;42.654;23.316;2022-09-12T05:33:56;94398.59;;;18.44;59.51
29197;BME280;62796;42.654;23.316;2022-09-12T05:36:27;94390.69;;;18.21;59.30
29197;BME280;62796;42.654;23.316;2022-09-12T05:38:56;94398.13;;;18.33;59.88
29197;BME280;62796;42.654;23.316;2022-09-12T05:41:24;94401.28;;;18.44;59.38
29197;BME280;62796;42.654;23.316;2022-09-12T05:43:52;94403.16;;;18.61;58.84
29197;BME280;62796;42.654;23.316;2022-09-12T05:46:19;94398.72;;;18.65;58.67
29197;BME280;62796;42.654;23.316;2022-09-12T05:48:46;94401.38;;;19.00;57.85
29197;BME280;62796;42.654;23.316;2022-09-12T05:51:17;94395.88;;;19.35;57.20
29197;BME280;62796;42.654;23.316;2022-09-12T05:53:44;94395.09;;;19.34;56.83
29197;BME280;62796;42.654;23.316;2022-09-12T05:56:13;94389.63;;;19.52;56.43
29197;BME280;62796;42.654;23.316;2022-09-12T05:58:41;94393.78;;;19.79;55.73
29197;BME280;62796;42.654;23.316;2022-09-12T06:01:10;94381.56;;;20.12;54.85
29197;BME280;62796;42.654;23.316;2022-09-12T06:03:41;94386.66;;;20.46;53.80
29197;BME280;62796;42.654;23.316;2022-09-12T06:06:08;94376.94;;;20.75;53.23
29197;BME280;62796;42.654;23.316;2022-09-12T06:08:34;94383.47;;;20.86;52.66
29197;BME280;62796;42.654;23.316;2022-09-12T06:11:04;94375.00;;;21.09;52.30
29197;BME280;62796;42.654;23.316;2022-09-12T06:13:32;94377.81;;;21.13;52.05
29197;BME280;62796;42.654;23.316;2022-09-12T06:16:25;94383.88;;;21.10;52.01
29197;BME280;62796;42.654;23.316;2022-09-12T06:18:53;94374.75;;;21.02;51.50
29197;BME280;62796;42.654;23.316;2022-09-12T06:21:20;94368.69;;;21.05;51.33
29197;BME280;62796;42.654;23.316;2022-09-12T06:23:46;94379.50;;;21.30;50.97
29197;BME280;62796;42.654;23.316;2022-09-12T06:26:13;94384.72;;;21.47;50.44
29197;BME280;62796;42.654;23.316;2022-09-12T06:28:40;94388.56;;;21.46;50.58
29197;BME280;62796;42.654;23.316;2022-09-12T06:31:15;94396.66;;;21.58;50.52
29197;BME280;62796;42.654;23.316;2022-09-12T06:33:44;94393.38;;;21.77;50.10
29197;BME280;62796;42.654;23.316;2022-09-12T06:36:14;94393.81;;;21.92;49.83
29197;BME280;62796;42.654;23.316;2022-09-12T06:38:40;94399.19;;;22.16;49.25
29197;BME280;62796;42.654;23.316;2022-09-12T06:41:08;94380.63;;;22.27;48.82
29197;BME280;62796;42.654;23.316;2022-09-12T06:43:34;94396.31;;;22.50;48.23
29197;BME280;62796;42.654;23.316;2022-09-12T06:46:01;94410.47;;;22.59;47.66
29197;BME280;62796;42.654;23.316;2022-09-12T06:48:26;94413.19;;;22.59;48.56
29197;BME280;62796;42.654;23.316;2022-09-12T06:53:25;94410.66;;;22.94;48.46
29197;BME280;62796;42.654;23.316;2022-09-12T06:56:19;94411.09;;;23.09;47.95
29197;BME280;62796;42.654;23.316;2022-09-12T06:58:45;94418.34;;;23.21;47.99
29197;BME280;62796;42.654;23.316;2022-09-12T07:01:19;94411.38;;;23.20;48.15
29197;BME280;62796;42.654;23.316;2022-09-12T07:03:53;94408.63;;;23.04;48.01
29197;BME280;62796;42.654;23.316;2022-09-12T07:06:21;94422.78;;;23.13;47.98
29197;BME280;62796;42.654;23.316;2022-09-12T07:08:48;94425.97;;;23.31;47.52
29197;BME280;62796;42.654;23.316;2022-09-12T07:11:20;94424.66;;;23.25;46.60
29197;BME280;62796;42.654;23.316;2022-09-12T07:13:48;94419.75;;;23.15;46.90
29197;BME280;62796;42.654;23.316;2022-09-12T07:16:14;94412.22;;;22.80;47.69
29197;BME280;62796;42.654;23.316;2022-09-12T07:18:40;94427.00;;;22.70;48.39
29197;BME280;62796;42.654;23.316;2022-09-12T07:21:09;94426.38;;;22.48;48.04
29197;BME280;62796;42.654;23.316;2022-09-12T07:23:35;94429.00;;;22.20;48.57
29197;BME280;62796;42.654;23.316;2022-09-12T07:26:01;94423.94;;;22.18;48.44
29197;BME280;62796;42.654;23.316;2022-09-12T07:28:30;94430.28;;;22.10;48.65
29197;BME280;62796;42.654;23.316;2022-09-12T07:30:56;94424.19;;;22.26;48.26
29197;BME280;62796;42.654;23.316;2022-09-12T07:33:23;94423.72;;;22.36;47.48
29197;BME280;62796;42.654;23.316;2022-09-12T07:35:49;94418.41;;;22.40;47.66
29197;BME280;62796;42.654;23.316;2022-09-12T07:38:17;94422.56;;;22.49;47.44
29197;BME280;62796;42.654;23.316;2022-09-12T07:40:42;94423.28;;;22.74;47.01
29197;BME280;62796;42.654;23.316;2022-09-12T07:43:08;94419.25;;;22.97;46.54
29197;BME280;62796;42.654;23.316;2022-09-12T07:45:33;94416.63;;;23.00;46.22
29197;BME280;62796;42.654;23.316;2022-09-12T07:47:59;94415.47;;;23.01;46.29
29197;BME280;62796;42.654;23.316;2022-09-12T07:50:25;94413.38;;;23.23;46.50
29197;BME280;62796;42.654;23.316;2022-09-12T07:52:52;94407.53;;;23.37;46.18
29197;BME280;62796;42.654;23.316;2022-09-12T07:55:17;94417.22;;;23.22;46.23
29197;BME280;62796;42.654;23.316;2022-09-12T07:57:43;94418.69;;;23.35;45.49
29197;BME280;62796;42.654;23.316;2022-09-12T08:00:09;94407.97;;;23.55;44.99
29197;BME280;62796;42.654;23.316;2022-09-12T08:02:35;94413.38;;;23.55;44.38
29197;BME280;62796;42.654;23.316;2022-09-12T08:05:01;94407.69;;;23.28;44.47
29197;BME280;62796;42.654;23.316;2022-09-12T08:07:26;94416.72;;;23.64;44.56
29197;BME280;62796;42.654;23.316;2022-09-12T08:09:52;94414.28;;;23.75;43.44
29197;BME280;62796;42.654;23.316;2022-09-12T08:12:17;94415.25;;;23.82;43.71
29197;BME280;62796;42.654;23.316;2022-09-12T08:14:44;94417.84;;;23.95;43.83
29197;BME280;62796;42.654;23.316;2022-09-12T08:17:10;94416.72;;;23.96;44.13
29197;BME280;62796;42.654;23.316;2022-09-12T08:19:35;94420.44;;;24.07;43.59
29197;BME280;62796;42.654;23.316;2022-09-12T08:22:00;94419.28;;;24.08;43.24
29197;BME280;62796;42.654;23.316;2022-09-12T08:24:27;94413.94;;;23.60;44.28
29197;BME280;62796;42.654;23.316;2022-09-12T08:26:52;94399.50;;;23.40;44.71
29197;BME280;62796;42.654;23.316;2022-09-12T08:29:18;94413.38;;;23.39;44.77
29197;BME280;62796;42.654;23.316;2022-09-12T08:31:43;94417.16;;;23.34;44.55
29197;BME280;62796;42.654;23.316;2022-09-12T08:34:10;94412.59;;;23.22;44.93
29197;BME280;62796;42.654;23.316;2022-09-12T08:36:35;94403.19;;;23.32;45.11
29197;BME280;62796;42.654;23.316;2022-09-12T08:39:04;94417.75;;;23.27;44.88
29197;BME280;62796;42.654;23.316;2022-09-12T08:41:43;94415.22;;;23.35;44.92
29197;BME280;62796;42.654;23.316;2022-09-12T08:47:37;94416.97;;;23.27;44.78
29197;BME280;62796;42.654;23.316;2022-09-12T08:55:05;94414.47;;;23.82;44.35
29197;BME280;62796;42.654;23.316;2022-09-12T08:57:31;94403.50;;;24.10;43.92
29197;BME280;62796;42.654;23.316;2022-09-12T08:59:57;94409.44;;;24.35;43.02
29197;BME280;62796;42.654;23.316;2022-09-12T09:10:14;94402.13;;;24.55;41.88
29197;BME280;62796;42.654;23.316;2022-09-12T09:12:59;94380.84;;;24.38;42.40
29197;BME280;62796;42.654;23.316;2022-09-12T09:18:30;94395.63;;;24.40;41.52
29197;BME280;62796;42.654;23.316;2022-09-12T09:23:44;94368.22;;;24.45;42.03
29197;BME280;62796;42.654;23.316;2022-09-12T09:26:18;94381.44;;;24.86;41.07
29197;BME280;62796;42.654;23.316;2022-09-12T09:29:17;94380.66;;;25.09;41.44
29197;BME280;62796;42.654;23.316;2022-09-12T09:31:47;94368.06;;;25.39;40.74
29197;BME280;62796;42.654;23.316;2022-09-12T09:34:18;94378.59;;;25.68;40.07
29197;BME280;62796;42.654;23.316;2022-09-12T09:36:52;94383.59;;;25.89;39.29
29197;BME280;62796;42.654;23.316;2022-09-12T09:44:58;94372.03;;;25.95;39.50
29197;BME280;62796;42.654;23.316;2022-09-12T09:47:24;94368.22;;;26.27;38.27
29197;BME280;62796;42.654;23.316;2022-09-12T09:49:50;94368.63;;;26.29;38.59
29197;BME280;62796;42.654;23.316;2022-09-12T09:52:23;94361.94;;;26.23;38.37
29197;BME280;62796;42.654;23.316;2022-09-12T09:55:00;94368.16;;;26.23;38.88
29197;BME280;62796;42.654;23.316;2022-09-12T09:59:58;94347.53;;;26.49;37.64
29197;BME280;62796;42.654;23.316;2022-09-12T10:02:24;94357.97;;;26.47;38.02
29197;BME280;62796;42.654;23.316;2022-09-12T10:04:57;94365.44;;;26.53;37.50
29197;BME280;62796;42.654;23.316;2022-09-12T10:07:23;94351.91;;;26.61;37.28
29197;BME280;62796;42.654;23.316;2022-09-12T10:10:04;94358.38;;;26.79;37.57
29197;BME280;62796;42.654;23.316;2022-09-12T10:12:31;94363.06;;;26.82;37.04
29197;BME280;62796;42.654;23.316;2022-09-12T10:14:58;94359.78;;;26.66;37.02
29197;BME280;62796;42.654;23.316;2022-09-12T10:17:40;94371.22;;;26.82;37.22
29197;BME280;62796;42.654;23.316;2022-09-12T10:23:29;94358.75;;;26.78;37.37
29197;BME280;62796;42.654;23.316;2022-09-12T10:25:59;94359.38;;;26.33;37.78
29197;BME280;62796;42.654;23.316;2022-09-12T10:28:40;94338.53;;;25.88;38.64
29197;BME280;62796;42.654;23.316;2022-09-12T10:31:09;94359.84;;;25.59;39.02
29197;BME280;62796;42.654;23.316;2022-09-12T10:33:48;94366.22;;;25.24;39.68
29197;BME280;62796;42.654;23.316;2022-09-12T10:36:21;94342.38;;;25.14;40.16
29197;BME280;62796;42.654;23.316;2022-09-12T10:38:54;94360.41;;;25.02;40.41
29197;BME280;62796;42.654;23.316;2022-09-12T10:41:20;94349.72;;;24.90;40.79
29197;BME280;62796;42.654;23.316;2022-09-12T10:43:46;94358.72;;;24.94;40.70
29197;BME280;62796;42.654;23.316;2022-09-12T10:46:19;94361.25;;;25.07;41.23
29197;BME280;62796;42.654;23.316;2022-09-12T10:48:46;94354.53;;;25.20;40.23
29197;BME280;62796;42.654;23.316;2022-09-12T10:54:09;94357.75;;;25.75;37.83
29197;BME280;62796;42.654;23.316;2022-09-12T10:56:40;94365.38;;;25.93;37.75
29197;BME280;62796;42.654;23.316;2022-09-12T11:04:53;94337.00;;;25.90;38.16
29197;BME280;62796;42.654;23.316;2022-09-12T11:10:02;94355.47;;;26.04;39.38
29197;BME280;62796;42.654;23.316;2022-09-12T11:12:38;94363.19;;;26.29;38.08
29197;BME280;62796;42.654;23.316;2022-09-12T11:18:32;94353.94;;;25.30;39.14
29197;BME280;62796;42.654;23.316;2022-09-12T11:24:20;94350.66;;;24.78;40.02
29197;BME280;62796;42.654;23.316;2022-09-12T11:32:09;94338.53;;;24.33;41.06
29197;BME280;62796;42.654;23.316;2022-09-12T11:34:51;94348.50;;;24.49;41.42
29197;BME280;62796;42.654;23.316;2022-09-12T11:39:58;94333.94;;;24.96;40.93
29197;BME280;62796;42.654;23.316;2022-09-12T11:42:34;94337.09;;;25.44;40.20
29197;BME280;62796;42.654;23.316;2022-09-12T11:45:11;94339.13;;;26.01;39.16
29197;BME280;62796;42.654;23.316;2022-09-12T11:47:38;94349.19;;;26.27;38.77
29197;BME280;62796;42.654;23.316;2022-09-12T11:50:23;94350.16;;;26.45;38.28
29197;BME280;62796;42.654;23.316;2022-09-12T11:52:52;94330.28;;;26.71;38.12
29197;BME280;62796;42.654;23.316;2022-09-12T11:55:24;94341.59;;;27.11;37.39
29197;BME280;62796;42.654;23.316;2022-09-12T11:57:54;94355.16;;;27.45;37.17
29197;BME280;62796;42.654;23.316;2022-09-12T12:05:48;94346.69;;;28.13;35.41
29197;BME280;62796;42.654;23.316;2022-09-12T12:08:12;94336.72;;;28.42;35.03
29197;BME280;62796;42.654;23.316;2022-09-12T12:10:41;94343.03;;;28.61;34.12
29197;BME280;62796;42.654;23.316;2022-09-12T12:13:26;94337.59;;;28.64;33.96
29197;BME280;62796;42.654;23.316;2022-09-12T12:15:57;94342.66;;;28.62;33.33
29197;BME280;62796;42.654;23.316;2022-09-12T12:18:26;94330.88;;;28.47;33.70
29197;BME280;62796;42.654;23.316;2022-09-12T12:20:53;94334.91;;;28.78;33.89
29197;BME280;62796;42.654;23.316;2022-09-12T12:23:31;94340.88;;;29.17;33.26
29197;BME280;62796;42.654;23.316;2022-09-12T12:25:59;94335.44;;;29.31;32.79
29197;BME280;62796;42.654;23.316;2022-09-12T12:31:03;94323.31;;;29.39;32.42
29197;BME280;62796;42.654;23.316;2022-09-12T12:38:30;94330.31;;;29.11;33.34
29197;BME280;62796;42.654;23.316;2022-09-12T12:46:11;94322.47;;;28.95;33.41
29197;BME280;62796;42.654;23.316;2022-09-12T12:53:54;94318.53;;;28.86;33.89
29197;BME280;62796;42.654;23.316;2022-09-12T12:56:38;94322.47;;;28.95;33.63
29197;BME280;62796;42.654;23.316;2022-09-12T12:59:20;94325.97;;;28.85;33.03
29197;BME280;62796;42.654;23.316;2022-09-12T13:01:49;94331.38;;;28.67;33.16
29197;BME280;62796;42.654;23.316;2022-09-12T13:04:19;94325.16;;;28.70;33.57
29197;BME280;62796;42.654;23.316;2022-09-12T13:07:01;94337.63;;;28.78;33.49
29197;BME280;62796;42.654;23.316;2022-09-12T13:09:46;94332.16;;;28.75;34.00
29197;BME280;62796;42.654;23.316;2022-09-12T13:12:21;94325.56;;;28.80;34.00
29197;BME280;62796;42.654;23.316;2022-09-12T13:15:01;94335.63;;;28.65;33.64
29197;BME280;62796;42.654;23.316;2022-09-12T13:20:00;94331.19;;;28.31;34.41
29197;BME280;62796;42.654;23.316;2022-09-12T13:22:41;94334.69;;;28.25;34.86
29197;BME280;62796;42.654;23.316;2022-09-12T13:30:23;94321.78;;;27.59;35.52
29197;BME280;62796;42.654;23.316;2022-09-12T13:32:49;94314.28;;;27.45;35.75
29197;BME280;62796;42.654;23.316;2022-09-12T13:35:32;94324.19;;;27.23;36.04
29197;BME280;62796;42.654;23.316;2022-09-12T13:40:53;94326.13;;;26.47;36.81
29197;BME280;62796;42.654;23.316;2022-09-12T13:43:41;94325.13;;;26.29;37.68
29197;BME280;62796;42.654;23.316;2022-09-12T13:46:08;94304.00;;;26.19;38.21
29197;BME280;62796;42.654;23.316;2022-09-12T13:48:38;94319.88;;;26.13;38.05
29197;BME280;62796;42.654;23.316;2022-09-12T13:51:03;94325.66;;;25.85;38.69
29197;BME280;62796;42.654;23.316;2022-09-12T13:53:40;94325.44;;;25.44;38.60
29197;BME280;62796;42.654;23.316;2022-09-12T13:56:06;94329.97;;;25.13;39.37
29197;BME280;62796;42.654;23.316;2022-09-12T13:58:32;94325.25;;;24.87;39.74
29197;BME280;62796;42.654;23.316;2022-09-12T14:01:03;94328.97;;;24.78;39.96
29197;BME280;62796;42.654;23.316;2022-09-12T14:03:32;94327.16;;;24.63;40.57
29197;BME280;62796;42.654;23.316;2022-09-12T14:06:17;94326.03;;;24.48;40.16
29197;BME280;62796;42.654;23.316;2022-09-12T14:08:46;94320.63;;;24.09;40.46
29197;BME280;62796;42.654;23.316;2022-09-12T14:11:22;94324.81;;;23.71;41.14
29197;BME280;62796;42.654;23.316;2022-09-12T14:13:49;94315.16;;;23.38;41.24
29197;BME280;62796;42.654;23.316;2022-09-12T14:16:17;94320.41;;;23.31;41.78
29197;BME280;62796;42.654;23.316;2022-09-12T14:18:46;94325.03;;;23.30;41.73
29197;BME280;62796;42.654;23.316;2022-09-12T14:23:57;94322.94;;;23.24;41.99
29197;BME280;62796;42.654;23.316;2022-09-12T14:26:25;94319.94;;;22.97;42.36
29197;BME280;62796;42.654;23.316;2022-09-12T14:28:52;94311.34;;;22.63;42.70
29197;BME280;62796;42.654;23.316;2022-09-12T14:33:47;94332.41;;;22.42;43.54
29197;BME280;62796;42.654;23.316;2022-09-12T14:36:22;94312.81;;;22.20;43.63
29197;BME280;62796;42.654;23.316;2022-09-12T14:38:57;94321.03;;;22.24;44.12
29197;BME280;62796;42.654;23.316;2022-09-12T14:41:28;94324.91;;;22.10;44.47
29197;BME280;62796;42.654;23.316;2022-09-12T14:43:57;94330.44;;;22.02;45.17
29197;BME280;62796;42.654;23.316;2022-09-12T14:46:37;94324.16;;;21.97;45.34
29197;BME280;62796;42.654;23.316;2022-09-12T14:49:26;94323.69;;;21.95;45.52
29197;BME280;62796;42.654;23.316;2022-09-12T14:51:55;94336.56;;;21.86;45.65
29197;BME280;62796;42.654;23.316;2022-09-12T14:54:39;94335.22;;;21.80;46.23
29197;BME280;62796;42.654;23.316;2022-09-12T14:57:30;94334.22;;;21.72;46.30
29197;BME280;62796;42.654;23.316;2022-09-12T15:02:41;94328.94;;;21.51;46.88
29197;BME280;62796;42.654;23.316;2022-09-12T15:09:59;94326.91;;;21.36;47.38
29197;BME280;62796;42.654;23.316;2022-09-12T15:12:25;94328.81;;;21.35;47.17
29197;BME280;62796;42.654;23.316;2022-09-12T15:14:51;94335.13;;;21.39;47.39
29197;BME280;62796;42.654;23.316;2022-09-12T15:17:17;94319.91;;;21.22;47.24
29197;BME280;62796;42.654;23.316;2022-09-12T15:19:42;94334.56;;;21.21;47.64
29197;BME280;62796;42.654;23.316;2022-09-12T15:22:14;94339.47;;;21.07;48.16
29197;BME280;62796;42.654;23.316;2022-09-12T15:24:39;94338.22;;;21.04;48.43
29197;BME280;62796;42.654;23.316;2022-09-12T15:27:10;94327.09;;;20.94;48.77
29197;BME280;62796;42.654;23.316;2022-09-12T15:29:36;94330.56;;;20.94;48.90
29197;BME280;62796;42.654;23.316;2022-09-12T15:32:02;94339.09;;;20.96;48.76
29197;BME280;62796;42.654;23.316;2022-09-12T15:34:28;94334.53;;;20.97;48.87
29197;BME280;62796;42.654;23.316;2022-09-12T15:36:53;94330.31;;;20.87;48.69
29197;BME280;62796;42.654;23.316;2022-09-12T15:39:19;94321.66;;;20.81;48.80
29197;BME280;62796;42.654;23.316;2022-09-12T15:41:46;94340.56;;;20.94;48.84
29197;BME280;62796;42.654;23.316;2022-09-12T15:44:12;94334.53;;;20.97;49.06
29197;BME280;62796;42.654;23.316;2022-09-12T15:46:38;94336.53;;;21.00;48.73
29197;BME280;62796;42.654;23.316;2022-09-12T15:49:04;94333.59;;;20.93;48.58
29197;BME280;62796;42.654;23.316;2022-09-12T15:51:31;94322.69;;;20.89;48.98
29197;BME280;62796;42.654;23.316;2022-09-12T15:53:57;94328.44;;;20.88;48.77
29197;BME280;62796;42.654;23.316;2022-09-12T15:56:22;94327.97;;;20.85;49.08
29197;BME280;62796;42.654;23.316;2022-09-12T15:58:48;94319.19;;;20.76;48.92
29197;BME280;62796;42.654;23.316;2022-09-12T16:01:15;94324.47;;;20.73;48.57
29197;BME280;62796;42.654;23.316;2022-09-12T16:03:42;94326.38;;;20.72;48.62
29197;BME280;62796;42.654;23.316;2022-09-12T16:06:08;94325.25;;;20.73;48.59
29197;BME280;62796;42.654;23.316;2022-09-12T16:08:35;94300.81;;;20.57;48.81
29197;BME280;62796;42.654;23.316;2022-09-12T16:11:03;94318.75;;;20.74;49.03
29197;BME280;62796;42.654;23.316;2022-09-12T16:13:28;94322.91;;;20.72;49.10
29197;BME280;62796;42.654;23.316;2022-09-12T16:15:58;94321.06;;;20.63;49.08
29197;BME280;62796;42.654;23.316;2022-09-12T16:18:24;94332.34;;;20.57;49.26
29197;BME280;62796;42.654;23.316;2022-09-12T16:20:53;94305.69;;;20.43;49.07
29197;BME280;62796;42.654;23.316;2022-09-12T16:23:19;94331.47;;;20.53;49.13
29197;BME280;62796;42.654;23.316;2022-09-12T16:25:45;94338.16;;;20.46;49.23
29197;BME280;62796;42.654;23.316;2022-09-12T16:28:10;94338.03;;;20.43;49.31
29197;BME280;62796;42.654;23.316;2022-09-12T16:30:36;94338.09;;;20.34;49.45
29197;BME280;62796;42.654;23.316;2022-09-12T16:33:02;94334.50;;;20.30;49.59
29197;BME280;62796;42.654;23.316;2022-09-12T16:35:27;94338.19;;;20.25;49.42
29197;BME280;62796;42.654;23.316;2022-09-12T16:37:55;94341.00;;;20.29;49.46